createdAt,value
2022-12-18T00:01:16.125Z,77.90
2022-12-18T00:03:43.009Z,77.55
2022-12-18T00:06:10.209Z,72.97
2022-12-18T00:08:36.954Z,73.04
2022-12-18T00:11:08.749Z,72.16
2022-12-18T00:13:36.442Z,73.88
2022-12-18T00:16:05.387Z,71.99
2022-12-18T00:18:32.351Z,70.78
2022-12-18T00:21:01.703Z,73.84
2022-12-18T00:23:29.092Z,74.03
2022-12-18T00:25:55.698Z,73.88
2022-12-18T00:28:22.107Z,75.15
2022-12-18T00:30:52.248Z,77.63
2022-12-18T00:33:18.988Z,77.32
2022-12-18T00:35:45.426Z,76.18
2022-12-18T00:38:11.827Z,76.88
2022-12-18T00:40:38.311Z,77.52
2022-12-18T00:43:04.738Z,78.00
2022-12-18T00:45:31.983Z,77.70
2022-12-18T00:47:58.558Z,77.83
2022-12-18T00:50:25.960Z,78.12
2022-12-18T00:52:52.815Z,77.88
2022-12-18T00:55:19.640Z,75.51
2022-12-18T00:57:47.102Z,76.40
2022-12-18T01:00:15.837Z,77.12
2022-12-18T01:02:43.462Z,74.00
2022-12-18T01:05:12.022Z,71.18
2022-12-18T01:07:38.591Z,72.08
2022-12-18T01:10:06.289Z,75.16
2022-12-18T01:12:35.751Z,76.75
2022-12-18T01:15:02.417Z,77.37
2022-12-18T01:17:28.944Z,76.90
2022-12-18T01:19:55.396Z,76.22
2022-12-18T01:22:21.804Z,76.16
2022-12-18T01:24:48.248Z,75.99
2022-12-18T01:27:14.706Z,76.08
2022-12-18T01:29:41.165Z,75.78
2022-12-18T01:32:09.425Z,75.92
2022-12-18T01:34:39.063Z,76.15
2022-12-18T01:37:06.167Z,75.52
2022-12-18T01:39:33.179Z,76.31
2022-12-18T01:42:03.841Z,75.98
2022-12-18T01:44:58.034Z,76.17
2022-12-18T01:47:29.477Z,76.13
2022-12-18T01:49:58.077Z,74.41
2022-12-18T01:52:27.054Z,74.39
2022-12-18T01:54:54.114Z,74.32
2022-12-18T01:57:21.431Z,75.42
2022-12-18T01:59:53.536Z,76.10
2022-12-18T02:02:22.006Z,76.58
2022-12-18T02:04:49.703Z,77.19
2022-12-18T02:07:36.561Z,76.08
2022-12-18T02:10:27.553Z,75.08
2022-12-18T02:13:12.402Z,76.77
2022-12-18T02:15:50.129Z,73.48
2022-12-18T02:18:28.180Z,70.84
2022-12-18T02:24:16.981Z,71.90
2022-12-18T02:27:06.316Z,71.30
2022-12-18T02:29:38.498Z,70.58
2022-12-18T02:32:10.218Z,72.69
2022-12-18T02:34:39.534Z,72.62
2022-12-18T02:37:13.891Z,74.83
2022-12-18T02:39:44.316Z,76.37
2022-12-18T02:42:14.300Z,76.60
2022-12-18T02:44:50.360Z,76.28
2022-12-18T02:47:23.977Z,73.50
2022-12-18T02:50:20.367Z,75.75
2022-12-18T02:52:55.123Z,75.62
2022-12-18T02:55:46.506Z,75.87
2022-12-18T02:58:21.897Z,76.21
2022-12-18T03:01:07.097Z,76.33
2022-12-18T03:03:53.832Z,76.16
2022-12-18T03:06:32.870Z,76.25
2022-12-18T03:09:06.900Z,76.50
2022-12-18T03:11:56.501Z,75.51
2022-12-18T03:14:25.068Z,75.81
2022-12-18T03:16:55.651Z,75.41
2022-12-18T03:19:26.908Z,74.10
2022-12-18T03:21:59.596Z,74.35
2022-12-18T03:24:28.794Z,74.19
2022-12-18T03:27:00.992Z,74.61
2022-12-18T03:29:36.821Z,75.51
2022-12-18T03:32:13.174Z,75.60
2022-12-18T03:34:43.225Z,76.37
2022-12-18T03:37:13.011Z,76.22
2022-12-18T03:39:41.794Z,73.15
2022-12-18T03:42:26.731Z,71.89
2022-12-18T03:45:13.380Z,68.39
2022-12-18T03:48:15.316Z,72.06
2022-12-18T03:50:54.917Z,70.09
2022-12-18T03:53:39.243Z,72.47
2022-12-18T03:56:07.500Z,72.50
2022-12-18T03:58:41.041Z,74.33
2022-12-18T04:01:18.999Z,76.07
2022-12-18T04:03:50.184Z,76.51
2022-12-18T04:06:19.324Z,76.34
2022-12-18T04:08:47.560Z,75.79
2022-12-18T04:11:17.592Z,76.41
2022-12-18T04:13:46.373Z,77.01
2022-12-18T04:16:20.791Z,76.43
2022-12-18T04:18:51.492Z,76.83
2022-12-18T04:21:20.313Z,75.38
2022-12-18T04:23:48.141Z,75.57
2022-12-18T04:26:14.757Z,75.83
2022-12-18T04:28:57.416Z,76.26
2022-12-18T04:31:24.095Z,74.86
2022-12-18T04:33:50.631Z,75.04
2022-12-18T04:36:17.557Z,75.45
2022-12-18T04:38:45.452Z,75.42
2022-12-18T04:41:15.364Z,73.15
2022-12-18T04:43:43.929Z,74.24
2022-12-18T04:46:10.593Z,74.84
2022-12-18T04:48:37.438Z,75.51
2022-12-18T04:51:05.142Z,75.09
2022-12-18T04:53:31.642Z,75.88
2022-12-18T04:56:05.973Z,76.38
2022-12-18T04:58:32.593Z,76.04
2022-12-18T05:00:59.125Z,74.98
2022-12-18T05:03:25.593Z,74.73
2022-12-18T05:05:52.765Z,72.40
2022-12-18T05:08:19.710Z,74.77
2022-12-18T05:10:46.583Z,75.17
2022-12-18T05:13:13.079Z,72.84
2022-12-18T05:15:39.647Z,68.90
2022-12-18T05:18:06.160Z,71.93
2022-12-18T05:20:32.850Z,72.27
2022-12-18T05:22:59.351Z,75.26
2022-12-18T05:25:26.006Z,75.52
2022-12-18T05:27:52.450Z,75.21
2022-12-18T05:30:18.943Z,74.67
2022-12-18T05:32:45.393Z,75.19
2022-12-18T05:35:12.330Z,74.73
2022-12-18T05:37:42.956Z,75.74
2022-12-18T05:40:10.784Z,75.65
2022-12-18T05:42:37.492Z,75.89
2022-12-18T05:45:05.063Z,75.57
2022-12-18T05:47:31.518Z,75.57
2022-12-18T05:49:58.067Z,74.86
2022-12-18T05:52:24.777Z,75.36
2022-12-18T05:54:51.209Z,75.38
2022-12-18T05:57:17.712Z,75.87
2022-12-18T05:59:44.432Z,76.32
2022-12-18T06:02:10.960Z,74.79
2022-12-18T06:04:37.549Z,75.69
2022-12-18T06:07:03.983Z,75.37
2022-12-18T06:09:30.724Z,74.25
2022-12-18T06:11:57.171Z,71.17
2022-12-18T06:14:23.640Z,72.36
2022-12-18T06:16:52.837Z,69.94
2022-12-18T06:19:19.290Z,69.65
2022-12-18T06:21:46.475Z,71.68
2022-12-18T06:24:12.954Z,71.24
2022-12-18T06:26:39.959Z,73.79
2022-12-18T06:29:06.534Z,75.75
2022-12-18T06:31:33.440Z,75.12
2022-12-18T06:34:03.178Z,75.49
2022-12-18T06:36:30.278Z,75.29
2022-12-18T06:38:57.447Z,75.79
2022-12-18T06:41:24.255Z,75.66
2022-12-18T06:43:50.799Z,76.02
2022-12-18T06:46:17.307Z,74.64
2022-12-18T06:48:43.858Z,70.61
2022-12-18T06:51:10.308Z,70.56
2022-12-18T06:53:36.980Z,70.84
2022-12-18T06:56:09.886Z,70.39
2022-12-18T06:58:37.923Z,71.19
2022-12-18T07:01:07.014Z,73.48
2022-12-18T07:03:33.550Z,74.17
2022-12-18T07:06:00.176Z,75.47
2022-12-18T07:08:27.030Z,76.00
2022-12-18T07:10:56.455Z,75.11
2022-12-18T07:13:23.465Z,73.98
2022-12-18T07:15:49.991Z,74.57
2022-12-18T07:18:16.484Z,75.12
2022-12-18T07:20:42.928Z,75.58
2022-12-18T07:23:09.432Z,75.26
2022-12-18T07:25:36.597Z,75.00
2022-12-18T07:28:03.930Z,75.67
2022-12-18T07:30:30.576Z,75.81
2022-12-18T07:32:57.022Z,75.83
2022-12-18T07:35:25.171Z,76.38
2022-12-18T07:37:52.355Z,75.91
2022-12-18T07:40:18.845Z,76.41
2022-12-18T07:42:45.275Z,75.13
2022-12-18T07:45:11.883Z,75.75
2022-12-18T07:47:38.462Z,75.94
2022-12-18T07:50:06.256Z,75.69
2022-12-18T07:52:32.723Z,72.87
2022-12-18T07:54:59.776Z,73.52
2022-12-18T08:00:13.280Z,73.60
2022-12-18T08:02:39.918Z,72.38
2022-12-18T08:05:06.658Z,70.92
2022-12-18T08:07:33.645Z,71.55
2022-12-18T08:10:00.146Z,72.40
2022-12-18T08:12:26.611Z,73.12
2022-12-18T08:14:53.243Z,70.88
2022-12-18T08:17:20.936Z,70.20
2022-12-18T08:19:47.399Z,72.28
2022-12-18T08:22:13.871Z,72.22
2022-12-18T08:24:40.300Z,73.39
2022-12-18T08:27:28.476Z,74.29
2022-12-18T08:29:53.163Z,74.74
2022-12-18T08:32:19.742Z,74.88
2022-12-18T08:34:46.259Z,75.02
2022-12-18T08:37:12.761Z,75.00
2022-12-18T08:39:39.210Z,74.58
2022-12-18T08:42:24.333Z,74.18
2022-12-18T08:44:50.783Z,74.01
2022-12-18T08:47:17.232Z,73.24
2022-12-18T08:49:43.682Z,72.38
2022-12-18T08:52:10.153Z,72.73
2022-12-18T08:54:36.614Z,73.65
2022-12-18T08:57:03.138Z,74.39
2022-12-18T08:59:29.735Z,74.37
2022-12-18T09:01:56.476Z,74.62
2022-12-18T09:04:23.618Z,75.24
2022-12-18T09:06:50.213Z,75.82
2022-12-18T09:09:16.693Z,75.58
2022-12-18T09:11:43.180Z,75.87
2022-12-18T09:14:10.850Z,76.28
2022-12-18T09:16:37.552Z,76.75
2022-12-18T09:19:05.752Z,77.52
2022-12-18T09:21:37.084Z,77.41
2022-12-18T09:24:05.236Z,78.25
2022-12-18T09:26:36.032Z,78.63
2022-12-18T09:29:03.856Z,79.08
2022-12-18T09:31:30.279Z,78.44
2022-12-18T09:33:57.675Z,78.51
2022-12-18T09:36:24.305Z,78.47
2022-12-18T09:38:51.429Z,78.04
2022-12-18T09:41:57.868Z,78.40
2022-12-18T09:44:28.038Z,78.72
2022-12-18T09:47:02.215Z,78.63
2022-12-18T09:49:31.941Z,78.01
2022-12-18T09:52:10.200Z,78.03
2022-12-18T09:54:40.879Z,77.58
2022-12-18T09:57:07.382Z,78.06
2022-12-18T09:59:40.617Z,78.50
2022-12-18T10:02:22.655Z,78.83
2022-12-18T10:05:15.167Z,78.65
2022-12-18T10:08:16.846Z,79.17
2022-12-18T10:10:53.196Z,79.31
2022-12-18T10:13:31.646Z,79.06
2022-12-18T10:16:04.036Z,79.17
2022-12-18T10:18:45.432Z,79.47
2022-12-18T10:21:17.747Z,79.70
2022-12-18T10:24:03.864Z,79.13
2022-12-18T10:26:33.680Z,79.19
2022-12-18T10:29:05.322Z,79.57
2022-12-18T10:31:32.176Z,79.65
2022-12-18T10:33:58.653Z,79.24
2022-12-18T10:36:26.250Z,79.48
2022-12-18T10:38:52.795Z,79.85
2022-12-18T10:41:19.983Z,79.83
2022-12-18T10:43:49.051Z,79.96
2022-12-18T10:46:20.642Z,79.85
2022-12-18T10:48:55.961Z,79.18
2022-12-18T10:51:31.542Z,78.79
2022-12-18T10:54:04.673Z,79.67
2022-12-18T10:56:35.814Z,79.39
2022-12-18T10:59:08.316Z,79.60
2022-12-18T11:01:50.597Z,79.24
2022-12-18T11:04:21.691Z,79.14
2022-12-18T11:07:03.822Z,79.08
2022-12-18T11:09:38.889Z,79.73
2022-12-18T11:12:17.676Z,79.66
2022-12-18T11:14:48.902Z,79.57
2022-12-18T11:17:27.119Z,79.09
2022-12-18T11:19:55.127Z,79.66
2022-12-18T11:22:27.433Z,79.70
2022-12-18T11:25:30.677Z,79.46
2022-12-18T11:27:51.965Z,78.50
2022-12-18T11:30:35.660Z,78.02
2022-12-18T11:33:17.258Z,77.35
2022-12-18T11:35:54.662Z,76.88
2022-12-18T11:38:35.447Z,78.05
2022-12-18T11:41:22.968Z,77.76
2022-12-18T11:43:55.118Z,77.05
2022-12-18T11:46:33.322Z,76.74
2022-12-18T11:49:29.181Z,77.42
2022-12-18T11:52:20.575Z,77.88
2022-12-18T11:54:54.260Z,76.14
2022-12-18T11:57:50.255Z,77.33
2022-12-18T12:00:19.814Z,77.45
2022-12-18T12:03:14.196Z,76.84
2022-12-18T12:05:59.783Z,75.85
2022-12-18T12:08:59.357Z,76.48
2022-12-18T12:11:50.217Z,75.62
2022-12-18T12:14:25.929Z,76.66
2022-12-18T12:16:59.740Z,76.01
2022-12-18T12:19:44.710Z,75.27
2022-12-18T12:22:40.665Z,75.49
2022-12-18T12:25:29.812Z,75.85
2022-12-18T12:28:08.460Z,75.94
2022-12-18T12:31:03.847Z,75.79
2022-12-18T12:33:48.567Z,75.77
2022-12-18T12:36:32.034Z,75.69
2022-12-18T12:39:02.468Z,75.56
2022-12-18T12:41:53.098Z,76.08
2022-12-18T12:44:35.306Z,75.88
2022-12-18T12:47:16.454Z,75.86
2022-12-18T12:49:48.471Z,76.51
2022-12-18T12:52:25.673Z,76.47
2022-12-18T12:54:52.760Z,75.87
2022-12-18T12:57:35.365Z,75.85
2022-12-18T13:00:13.800Z,76.50
2022-12-18T13:03:05.714Z,76.36
2022-12-18T13:05:41.405Z,76.06
2022-12-18T13:08:11.088Z,76.49
2022-12-18T13:10:40.340Z,76.75
2022-12-18T13:13:13.318Z,76.40
2022-12-18T13:15:43.998Z,75.88
2022-12-18T13:18:16.126Z,76.15
2022-12-18T13:21:03.776Z,76.43
2022-12-18T13:23:42.402Z,76.64
2022-12-18T13:26:09.265Z,76.67
2022-12-18T13:28:47.922Z,77.07
2022-12-18T13:31:49.541Z,76.86
2022-12-18T13:34:27.664Z,76.69
2022-12-18T13:36:58.225Z,76.62
2022-12-18T13:39:34.779Z,76.83
2022-12-18T13:42:08.430Z,76.66
2022-12-18T13:44:40.682Z,76.68
2022-12-18T13:47:25.751Z,76.87
2022-12-18T13:49:52.166Z,77.06
2022-12-18T13:52:22.478Z,76.74
2022-12-18T13:54:56.457Z,76.54
2022-12-18T13:57:33.874Z,76.54
2022-12-18T14:00:17.719Z,76.64
2022-12-18T14:02:46.529Z,76.72
2022-12-18T14:05:35.268Z,76.69
2022-12-18T14:08:13.642Z,76.72
2022-12-18T14:10:48.568Z,76.97
2022-12-18T14:13:30.324Z,77.10
2022-12-18T14:15:57.763Z,76.83
2022-12-18T14:18:31.554Z,77.46
2022-12-18T14:21:00.583Z,77.21
2022-12-18T14:23:39.504Z,77.88
2022-12-18T14:26:28.153Z,77.55
2022-12-18T14:28:56.360Z,77.61
2022-12-18T14:31:26.332Z,77.91
2022-12-18T14:33:54.041Z,77.49
2022-12-18T14:36:25.354Z,77.94
2022-12-18T14:38:54.791Z,77.78
2022-12-18T14:41:22.400Z,78.06
2022-12-18T14:43:51.618Z,78.58
2022-12-18T14:46:35.415Z,78.27
2022-12-18T14:49:23.053Z,78.60
2022-12-18T14:51:51.813Z,78.18
2022-12-18T14:54:20.755Z,78.41
2022-12-18T14:56:50.187Z,78.35
2022-12-18T14:59:24.196Z,77.99
2022-12-18T15:02:01.156Z,78.54
2022-12-18T15:04:31.956Z,78.20
2022-12-18T15:07:20.695Z,78.81
2022-12-18T15:10:17.098Z,78.70
2022-12-18T15:12:49.519Z,78.95
2022-12-18T15:15:34.713Z,79.00
2022-12-18T15:18:03.057Z,78.91
2022-12-18T15:20:33.547Z,78.82
2022-12-18T15:23:00.121Z,79.22
2022-12-18T15:25:33.328Z,79.02
2022-12-18T15:27:59.783Z,79.50
2022-12-18T15:30:26.884Z,79.41
2022-12-18T15:33:13.688Z,79.80
2022-12-18T15:35:45.244Z,79.13
2022-12-18T15:38:13.323Z,78.85
2022-12-18T15:40:39.818Z,78.74
2022-12-18T15:43:24.929Z,79.21
2022-12-18T15:45:51.396Z,79.54
2022-12-18T15:48:24.293Z,79.14
2022-12-18T15:50:53.430Z,79.27
2022-12-18T15:53:20.109Z,79.28
2022-12-18T15:56:05.062Z,79.06
2022-12-18T15:58:31.495Z,79.06
2022-12-18T16:01:00.023Z,79.24
2022-12-18T16:03:26.525Z,79.25
2022-12-18T16:05:53.233Z,79.03
2022-12-18T16:08:21.021Z,79.29
2022-12-18T16:10:47.607Z,79.25
2022-12-18T16:13:20.101Z,78.99
2022-12-18T16:15:46.672Z,79.13
2022-12-18T16:18:13.341Z,79.37
2022-12-18T16:20:40.462Z,79.18
2022-12-18T16:23:07.374Z,79.40
2022-12-18T16:25:34.264Z,79.47
2022-12-18T16:28:00.678Z,79.54
2022-12-18T16:30:33.098Z,79.59
2022-12-18T16:33:05.730Z,79.30
2022-12-18T16:35:34.401Z,79.67
2022-12-18T16:38:00.837Z,79.90
2022-12-18T16:40:27.330Z,79.21
2022-12-18T16:42:54.084Z,79.30
2022-12-18T16:45:20.711Z,79.51
2022-12-18T16:47:47.307Z,79.38
2022-12-18T16:50:13.866Z,79.38
2022-12-18T16:52:40.703Z,79.51
2022-12-18T16:55:07.894Z,80.09
2022-12-18T16:57:34.407Z,80.08
2022-12-18T17:00:05.259Z,80.53
2022-12-18T17:02:32.947Z,80.49
2022-12-18T17:04:59.677Z,80.17
2022-12-18T17:07:26.952Z,79.96
2022-12-18T17:09:54.315Z,80.13
2022-12-18T17:12:21.620Z,79.96
2022-12-18T17:14:48.448Z,80.01
2022-12-18T17:17:23.747Z,79.64
2022-12-18T17:19:52.269Z,79.54
2022-12-18T17:22:19.594Z,80.07
2022-12-18T17:24:47.156Z,80.19
2022-12-18T17:27:13.994Z,80.34
2022-12-18T17:29:46.891Z,80.38
2022-12-18T17:32:14.800Z,79.93
2022-12-18T17:34:41.372Z,79.93
2022-12-18T17:37:08.480Z,79.25
2022-12-18T17:39:34.980Z,79.41
2022-12-18T17:42:01.478Z,79.37
2022-12-18T17:44:28.023Z,79.43
2022-12-18T17:46:54.678Z,79.63
2022-12-18T17:49:21.665Z,79.77
2022-12-18T17:51:48.754Z,80.12
2022-12-18T17:54:15.233Z,80.15
2022-12-18T17:56:41.737Z,79.88
2022-12-18T17:59:08.379Z,80.48
2022-12-18T18:01:38.506Z,80.13
2022-12-18T18:04:07.750Z,79.85
2022-12-18T18:06:34.446Z,80.41
2022-12-18T18:09:03.932Z,80.20
2022-12-18T18:11:49.039Z,80.46
2022-12-18T18:14:20.784Z,80.61
2022-12-18T18:16:49.654Z,80.57
2022-12-18T18:19:21.770Z,80.37
2022-12-18T18:21:50.126Z,80.40
2022-12-18T18:24:20.395Z,80.16
2022-12-18T18:26:47.133Z,80.46
2022-12-18T18:29:23.676Z,80.29
2022-12-18T18:31:52.595Z,79.90
2022-12-18T18:34:22.731Z,80.31
2022-12-18T18:36:49.395Z,79.91
2022-12-18T18:39:16.257Z,79.98
2022-12-18T18:41:48.014Z,80.48
2022-12-18T18:44:18.780Z,80.27
2022-12-18T18:46:45.428Z,80.21
2022-12-18T18:49:13.730Z,80.08
2022-12-18T18:51:41.145Z,80.17
2022-12-18T18:54:08.049Z,80.01
2022-12-18T18:57:11.676Z,79.95
2022-12-18T18:59:22.448Z,80.18
2022-12-18T19:01:56.934Z,80.28
2022-12-18T19:04:23.586Z,80.39
2022-12-18T19:06:50.096Z,80.02
2022-12-18T19:09:17.218Z,79.92
2022-12-18T19:12:02.433Z,80.07
2022-12-18T19:14:29.415Z,79.97
2022-12-18T19:16:55.927Z,79.88
2022-12-18T19:19:23.486Z,80.36
2022-12-18T19:21:50.255Z,80.33
2022-12-18T19:24:16.713Z,80.29
2022-12-18T19:26:43.632Z,80.40
2022-12-18T19:29:12.055Z,80.19
2022-12-18T19:31:40.200Z,80.40
2022-12-18T19:34:07.848Z,80.13
2022-12-18T19:36:37.654Z,80.15
2022-12-18T19:39:09.643Z,80.55
2022-12-18T19:41:36.066Z,80.45
2022-12-18T19:44:07.958Z,80.13
2022-12-18T19:46:35.685Z,79.61
2022-12-18T19:49:02.657Z,79.72
2022-12-18T19:51:30.372Z,80.03
2022-12-18T19:53:59.930Z,79.93
2022-12-18T19:56:34.250Z,79.86
2022-12-18T19:59:01.770Z,79.90
2022-12-18T20:01:30.281Z,79.77
2022-12-18T20:03:58.311Z,79.77
2022-12-18T20:06:32.834Z,79.82
2022-12-18T20:09:05.381Z,79.81
2022-12-18T20:11:33.824Z,80.06
2022-12-18T20:14:06.525Z,79.99
2022-12-18T20:16:33.068Z,79.91
2022-12-18T20:19:00.207Z,79.44
2022-12-18T20:21:26.772Z,79.84
2022-12-18T20:23:54.781Z,79.38
2022-12-18T20:26:22.436Z,79.79
2022-12-18T20:28:48.867Z,79.50
2022-12-18T20:31:15.294Z,79.81
2022-12-18T20:33:42.610Z,79.46
2022-12-18T20:36:15.341Z,79.25
2022-12-18T20:38:43.264Z,79.30
2022-12-18T20:41:16.335Z,79.44
2022-12-18T20:43:43.313Z,79.12
2022-12-18T20:46:12.045Z,79.39
2022-12-18T20:48:38.631Z,79.36
2022-12-18T20:51:08.135Z,79.36
2022-12-18T20:53:35.801Z,79.21
2022-12-18T20:56:08.318Z,79.57
2022-12-18T20:58:35.560Z,78.71
2022-12-18T21:01:07.830Z,79.16
2022-12-18T21:03:36.187Z,79.22
2022-12-18T21:06:03.463Z,79.60
2022-12-18T21:08:30.256Z,79.39
2022-12-18T21:10:56.721Z,79.30
2022-12-18T21:13:23.660Z,79.37
2022-12-18T21:15:53.398Z,79.40
2022-12-18T21:18:20.349Z,78.75
2022-12-18T21:20:46.911Z,78.94
2022-12-18T21:23:16.602Z,79.15
2022-12-18T21:25:44.111Z,78.56
2022-12-18T21:28:12.079Z,78.63
2022-12-18T21:30:38.802Z,78.87
2022-12-18T21:33:05.269Z,79.03
2022-12-18T21:35:32.131Z,78.88
2022-12-18T21:37:58.728Z,78.98
2022-12-18T21:40:25.330Z,78.70
2022-12-18T21:43:10.217Z,78.53
2022-12-18T21:45:39.742Z,78.71
2022-12-18T21:48:06.291Z,78.57
2022-12-18T21:50:32.713Z,78.39
2022-12-18T21:52:59.192Z,78.68
2022-12-18T21:55:25.887Z,78.63
2022-12-18T21:57:54.484Z,78.30
2022-12-18T22:00:20.965Z,78.12
2022-12-18T22:03:01.146Z,78.14
2022-12-18T22:05:35.156Z,78.69
2022-12-18T22:08:01.747Z,78.44
2022-12-18T22:10:28.572Z,78.50
2022-12-18T22:12:55.208Z,78.53
2022-12-18T22:15:22.060Z,78.31
2022-12-18T22:17:50.238Z,78.20
2022-12-18T22:20:17.629Z,78.15
2022-12-18T22:22:46.321Z,78.19
2022-12-18T22:25:12.871Z,78.09
2022-12-18T22:27:39.330Z,78.10
2022-12-18T22:30:06.396Z,77.96
2022-12-18T22:32:35.009Z,78.16
2022-12-18T22:35:08.390Z,78.25
2022-12-18T22:37:39.359Z,77.93
2022-12-18T22:40:07.442Z,78.06
2022-12-18T22:42:34.946Z,78.03
2022-12-18T22:45:01.473Z,78.22
2022-12-18T22:47:30.160Z,78.08
2022-12-18T22:49:57.728Z,78.34
2022-12-18T22:52:24.799Z,78.00
2022-12-18T22:54:51.396Z,78.10
2022-12-18T22:57:20.108Z,78.33
2022-12-18T22:59:46.591Z,78.29
2022-12-18T23:02:13.167Z,78.13
2022-12-18T23:04:39.768Z,78.14
2022-12-18T23:07:06.779Z,78.16
2022-12-18T23:09:33.385Z,78.20
2022-12-18T23:12:00.227Z,78.36
2022-12-18T23:14:27.519Z,78.18
2022-12-18T23:16:53.976Z,78.02
2022-12-18T23:19:21.406Z,77.62
2022-12-18T23:21:50.857Z,78.23
2022-12-18T23:24:17.460Z,77.71
2022-12-18T23:26:43.899Z,77.65
2022-12-18T23:29:10.406Z,77.74
2022-12-18T23:31:38.627Z,77.81
2022-12-18T23:34:06.792Z,77.69
2022-12-18T23:36:40.283Z,78.01
2022-12-18T23:39:15.415Z,77.33
2022-12-18T23:41:56.026Z,77.83
2022-12-18T23:44:22.565Z,78.00
2022-12-18T23:46:49.117Z,77.63
2022-12-18T23:49:15.655Z,77.56
2022-12-18T23:51:42.116Z,77.54
2022-12-18T23:54:09.893Z,77.74
2022-12-18T23:56:36.386Z,77.41
2022-12-18T23:59:02.912Z,77.66
